sensor_id;sensor_type;location;lat;lon;timestamp;pressure;altitude;pressure_sealevel;temperature;humidity
10006;BME280;5042;42.626;23.382;2024-01-30T00:01:53;149246.66;;;0.61;100.00
10006;BME280;5042;42.626;23.382;2024-01-30T00:04:21;149237.69;;;0.57;100.00
10006;BME280;5042;42.626;23.382;2024-01-30T00:06:48;149242.84;;;0.59;100.00
10006;BME280;5042;42.626;23.382;2024-01-30T00:09:15;149281.41;;;0.75;100.00
10006;BME280;5042;42.626;23.382;2024-01-30T00:11:42;149287.84;;;0.77;100.00
10006;BME280;5042;42.626;23.382;2024-01-30T00:14:09;149289.13;;;0.78;100.00
10006;BME280;5042;42.626;23.382;2024-01-30T00:16:36;149280.13;;;0.74;100.00
10006;BME280;5042;42.626;23.382;2024-01-30T00:19:03;149260.84;;;0.67;100.00
10006;BME280;5042;42.626;23.382;2024-01-30T00:21:31;149262.13;;;0.67;100.00
10006;BME280;5042;42.626;23.382;2024-01-30T00:23:58;149264.66;;;0.68;100.00
10006;BME280;5042;42.626;23.382;2024-01-30T00:26:25;149224.81;;;0.52;100.00
10006;BME280;5042;42.626;23.382;2024-01-30T00:28:52;149202.94;;;0.44;100.00
10006;BME280;5042;42.626;23.382;2024-01-30T00:31:19;149175.91;;;0.33;100.00
10006;BME280;5042;42.626;23.382;2024-01-30T00:33:46;149174.63;;;0.32;100.00
10006;BME280;5042;42.626;23.382;2024-01-30T00:36:13;149188.75;;;0.38;100.00
10006;BME280;5042;42.626;23.382;2024-01-30T00:38:41;149186.19;;;0.37;100.00
10006;BME280;5042;42.626;23.382;2024-01-30T00:41:08;148990.75;;;-0.41;100.00
10006;BME280;5042;42.626;23.382;2024-01-30T00:43:35;149210.63;;;0.47;100.00
10006;BME280;5042;42.626;23.382;2024-01-30T00:46:02;149174.63;;;0.32;100.00
10006;BME280;5042;42.626;23.382;2024-01-30T00:48:29;149166.91;;;0.29;100.00
10006;BME280;5042;42.626;23.382;2024-01-30T00:50:56;149148.91;;;0.22;100.00
10006;BME280;5042;42.626;23.382;2024-01-30T00:53:23;149130.91;;;0.15;100.00
10006;BME280;5042;42.626;23.382;2024-01-30T00:55:51;149130.91;;;0.15;100.00
10006;BME280;5042;42.626;23.382;2024-01-30T00:58:18;149133.47;;;0.16;100.00
10006;BME280;5042;42.626;23.382;2024-01-30T01:00:44;149106.47;;;0.05;100.00
10006;BME280;5042;42.626;23.382;2024-01-30T01:03:11;149127.03;;;0.13;100.00
10006;BME280;5042;42.626;23.382;2024-01-30T01:05:39;149102.59;;;0.04;100.00
10006;BME280;5042;42.626;23.382;2024-01-30T01:08:06;149066.59;;;-0.11;100.00
10006;BME280;5042;42.626;23.382;2024-01-30T01:10:34;149065.31;;;-0.11;100.00
10006;BME280;5042;42.626;23.382;2024-01-30T01:13:03;149074.31;;;-0.08;100.00
10006;BME280;5042;42.626;23.382;2024-01-30T01:15:29;149066.59;;;-0.11;100.00
10006;BME280;5042;42.626;23.382;2024-01-30T01:17:56;149076.91;;;-0.07;100.00
10006;BME280;5042;42.626;23.382;2024-01-30T01:20:23;149082.06;;;-0.05;100.00
10006;BME280;5042;42.626;23.382;2024-01-30T01:22:50;149094.91;;;0.01;100.00
10006;BME280;5042;42.626;23.382;2024-01-30T01:25:18;149097.47;;;0.02;100.00
10006;BME280;5042;42.626;23.382;2024-01-30T01:27:45;149096.19;;;0.01;100.00
10006;BME280;5042;42.626;23.382;2024-01-30T01:30:18;149109.03;;;0.06;100.00
10006;BME280;5042;42.626;23.382;2024-01-30T01:32:47;149130.91;;;0.15;100.00
10006;BME280;5042;42.626;23.382;2024-01-30T01:35:16;149125.75;;;0.13;100.00
10006;BME280;5042;42.626;23.382;2024-01-30T01:37:43;149139.88;;;0.18;100.00
10006;BME280;5042;42.626;23.382;2024-01-30T01:40:10;149151.47;;;0.23;100.00
10006;BME280;5042;42.626;23.382;2024-01-30T01:42:37;149147.66;;;0.22;100.00
10006;BME280;5042;42.626;23.382;2024-01-30T01:45:04;149160.50;;;0.27;100.00
10006;BME280;5042;42.626;23.382;2024-01-30T01:47:33;149155.34;;;0.25;100.00
10006;BME280;5042;42.626;23.382;2024-01-30T01:50:00;149197.78;;;0.41;100.00
10006;BME280;5042;42.626;23.382;2024-01-30T01:52:27;149159.22;;;0.26;100.00
10006;BME280;5042;42.626;23.382;2024-01-30T01:54:54;149118.06;;;0.10;100.00
10006;BME280;5042;42.626;23.382;2024-01-30T01:57:21;149125.75;;;0.13;100.00
10006;BME280;5042;42.626;23.382;2024-01-30T01:59:48;149118.06;;;0.10;100.00
10006;BME280;5042;42.626;23.382;2024-01-30T02:02:17;149100.06;;;0.03;100.00
10006;BME280;5042;42.626;23.382;2024-01-30T02:04:47;149123.16;;;0.12;100.00
10006;BME280;5042;42.626;23.382;2024-01-30T02:07:14;149125.75;;;0.13;100.00
10006;BME280;5042;42.626;23.382;2024-01-30T02:09:41;149138.63;;;0.18;100.00
10006;BME280;5042;42.626;23.382;2024-01-30T02:12:09;149136.06;;;0.17;100.00
10006;BME280;5042;42.626;23.382;2024-01-30T02:14:44;149138.63;;;0.18;100.00
10006;BME280;5042;42.626;23.382;2024-01-30T02:17:11;149143.75;;;0.20;100.00
10006;BME280;5042;42.626;23.382;2024-01-30T02:19:38;149121.88;;;0.11;100.00
10006;BME280;5042;42.626;23.382;2024-01-30T02:22:07;149123.16;;;0.12;100.00
10006;BME280;5042;42.626;23.382;2024-01-30T02:24:34;149110.31;;;0.07;100.00
10006;BME280;5042;42.626;23.382;2024-01-30T02:27:01;149110.31;;;0.07;100.00
10006;BME280;5042;42.626;23.382;2024-01-30T02:29:28;149110.31;;;0.07;100.00
10006;BME280;5042;42.626;23.382;2024-01-30T02:31:55;149133.47;;;0.16;100.00
10006;BME280;5042;42.626;23.382;2024-01-30T02:34:22;149132.19;;;0.15;100.00
10006;BME280;5042;42.626;23.382;2024-01-30T02:36:48;149151.47;;;0.23;100.00
10006;BME280;5042;42.626;23.382;2024-01-30T02:39:17;149125.75;;;0.13;100.00
10006;BME280;5042;42.626;23.382;2024-01-30T02:41:44;149129.63;;;0.14;100.00
10006;BME280;5042;42.626;23.382;2024-01-30T02:44:11;149141.16;;;0.19;100.00
10006;BME280;5042;42.626;23.382;2024-01-30T02:46:37;149143.75;;;0.20;100.00
10006;BME280;5042;42.626;23.382;2024-01-30T02:49:04;149172.06;;;0.31;100.00
10006;BME280;5042;42.626;23.382;2024-01-30T02:51:32;149160.50;;;0.27;100.00
10006;BME280;5042;42.626;23.382;2024-01-30T02:53:59;149208.09;;;0.46;100.00
10006;BME280;5042;42.626;23.382;2024-01-30T02:56:27;149238.97;;;0.58;100.00
10006;BME280;5042;42.626;23.382;2024-01-30T02:58:54;149231.25;;;0.55;100.00
10006;BME280;5042;42.626;23.382;2024-01-30T03:01:21;149178.50;;;0.34;100.00
10006;BME280;5042;42.626;23.382;2024-01-30T03:03:50;149138.63;;;0.18;100.00
10006;BME280;5042;42.626;23.382;2024-01-30T03:06:16;149182.31;;;0.35;100.00
10006;BME280;5042;42.626;23.382;2024-01-30T03:08:45;149197.78;;;0.41;99.88
10006;BME280;5042;42.626;23.382;2024-01-30T03:11:12;149223.50;;;0.52;99.96
10006;BME280;5042;42.626;23.382;2024-01-30T03:13:40;149204.22;;;0.44;100.00
10006;BME280;5042;42.626;23.382;2024-01-30T03:16:08;149168.19;;;0.30;100.00
10006;BME280;5042;42.626;23.382;2024-01-30T03:18:35;149183.66;;;0.36;100.00
10006;BME280;5042;42.626;23.382;2024-01-30T03:21:02;149172.06;;;0.31;100.00
10006;BME280;5042;42.626;23.382;2024-01-30T03:23:29;149130.91;;;0.15;100.00
10006;BME280;5042;42.626;23.382;2024-01-30T03:25:57;149118.06;;;0.10;100.00
10006;BME280;5042;42.626;23.382;2024-01-30T03:28:24;149121.88;;;0.11;100.00
10006;BME280;5042;42.626;23.382;2024-01-30T03:30:53;149164.31;;;0.28;100.00
10006;BME280;5042;42.626;23.382;2024-01-30T03:33:20;149141.16;;;0.19;100.00
10006;BME280;5042;42.626;23.382;2024-01-30T03:35:46;149146.31;;;0.21;100.00
10006;BME280;5042;42.626;23.382;2024-01-30T03:38:13;149156.63;;;0.25;100.00
10006;BME280;5042;42.626;23.382;2024-01-30T03:40:40;149166.91;;;0.29;100.00
10006;BME280;5042;42.626;23.382;2024-01-30T03:43:07;149102.59;;;0.04;100.00
10006;BME280;5042;42.626;23.382;2024-01-30T03:45:34;149092.31;;;-0.01;100.00
10006;BME280;5042;42.626;23.382;2024-01-30T03:48:03;149107.75;;;0.06;100.00
10006;BME280;5042;42.626;23.382;2024-01-30T03:50:30;149109.03;;;0.06;100.00
10006;BME280;5042;42.626;23.382;2024-01-30T03:52:56;149145.03;;;0.20;100.00
10006;BME280;5042;42.626;23.382;2024-01-30T03:55:23;149075.59;;;-0.07;100.00
10006;BME280;5042;42.626;23.382;2024-01-30T03:57:50;149039.59;;;-0.22;100.00
10006;BME280;5042;42.626;23.382;2024-01-30T04:00:17;149034.47;;;-0.24;100.00
10006;BME280;5042;42.626;23.382;2024-01-30T04:02:45;149067.88;;;-0.10;96.03
10006;BME280;5042;42.626;23.382;2024-01-30T04:05:13;149066.59;;;-0.11;94.94
10006;BME280;5042;42.626;23.382;2024-01-30T04:07:40;149044.72;;;-0.19;100.00
10006;BME280;5042;42.626;23.382;2024-01-30T04:10:08;149017.75;;;-0.30;100.00
10006;BME280;5042;42.626;23.382;2024-01-30T04:12:35;149025.47;;;-0.27;100.00
10006;BME280;5042;42.626;23.382;2024-01-30T04:15:02;148998.50;;;-0.38;100.00
10006;BME280;5042;42.626;23.382;2024-01-30T04:17:30;148953.47;;;-0.56;97.33
10006;BME280;5042;42.626;23.382;2024-01-30T04:19:56;148966.31;;;-0.51;96.83
10006;BME280;5042;42.626;23.382;2024-01-30T04:22:25;149012.63;;;-0.32;94.38
10006;BME280;5042;42.626;23.382;2024-01-30T04:24:51;148999.75;;;-0.37;94.95
10006;BME280;5042;42.626;23.382;2024-01-30T04:27:18;149001.03;;;-0.37;98.00
10006;BME280;5042;42.626;23.382;2024-01-30T04:29:45;149008.75;;;-0.34;96.86
10006;BME280;5042;42.626;23.382;2024-01-30T04:32:12;149004.91;;;-0.35;97.12
10006;BME280;5042;42.626;23.382;2024-01-30T04:34:39;148974.03;;;-0.48;99.14
10006;BME280;5042;42.626;23.382;2024-01-30T04:37:06;149037.03;;;-0.23;100.00
10006;BME280;5042;42.626;23.382;2024-01-30T04:39:34;149051.16;;;-0.17;99.99
10006;BME280;5042;42.626;23.382;2024-01-30T04:42:02;149033.16;;;-0.24;98.04
10006;BME280;5042;42.626;23.382;2024-01-30T04:44:29;149031.88;;;-0.25;95.67
10006;BME280;5042;42.626;23.382;2024-01-30T04:46:56;149042.19;;;-0.20;94.87
10006;BME280;5042;42.626;23.382;2024-01-30T04:49:24;149030.59;;;-0.25;90.22
10006;BME280;5042;42.626;23.382;2024-01-30T04:51:51;149046.06;;;-0.19;85.00
10006;BME280;5042;42.626;23.382;2024-01-30T04:54:18;149024.19;;;-0.28;87.17
10006;BME280;5042;42.626;23.382;2024-01-30T04:56:46;148990.75;;;-0.41;87.60
10006;BME280;5042;42.626;23.382;2024-01-30T04:59:14;149002.31;;;-0.36;87.55
10006;BME280;5042;42.626;23.382;2024-01-30T05:01:41;148925.19;;;-0.67;93.13
10006;BME280;5042;42.626;23.382;2024-01-30T05:04:07;148891.81;;;-0.80;92.29
10006;BME280;5042;42.626;23.382;2024-01-30T05:06:34;148845.53;;;-0.99;95.23
10006;BME280;5042;42.626;23.382;2024-01-30T05:09:01;148842.94;;;-1.00;99.17
10006;BME280;5042;42.626;23.382;2024-01-30T05:11:28;148835.25;;;-1.03;99.28
10006;BME280;5042;42.626;23.382;2024-01-30T05:13:56;148845.53;;;-0.99;98.47
10006;BME280;5042;42.626;23.382;2024-01-30T05:16:23;148806.97;;;-1.14;99.53
10006;BME280;5042;42.626;23.382;2024-01-30T05:18:50;148786.44;;;-1.22;100.00
10006;BME280;5042;42.626;23.382;2024-01-30T05:21:17;148774.88;;;-1.27;100.00
10006;BME280;5042;42.626;23.382;2024-01-30T05:23:44;148778.75;;;-1.25;100.00
10006;BME280;5042;42.626;23.382;2024-01-30T05:26:10;148792.88;;;-1.20;100.00
10006;BME280;5042;42.626;23.382;2024-01-30T05:28:37;148803.16;;;-1.16;100.00
10006;BME280;5042;42.626;23.382;2024-01-30T05:31:05;148812.13;;;-1.12;100.00
10006;BME280;5042;42.626;23.382;2024-01-30T05:33:32;148826.28;;;-1.07;100.00
10006;BME280;5042;42.626;23.382;2024-01-30T05:35:59;148848.09;;;-0.98;100.00
10006;BME280;5042;42.626;23.382;2024-01-30T05:38:26;148864.81;;;-0.91;100.00
10006;BME280;5042;42.626;23.382;2024-01-30T05:40:55;148819.88;;;-1.09;100.00
10006;BME280;5042;42.626;23.382;2024-01-30T05:43:23;148809.56;;;-1.13;100.00
10006;BME280;5042;42.626;23.382;2024-01-30T05:45:51;148862.25;;;-0.92;100.00
10006;BME280;5042;42.626;23.382;2024-01-30T05:48:19;148876.38;;;-0.87;100.00
10006;BME280;5042;42.626;23.382;2024-01-30T05:50:46;148860.94;;;-0.93;100.00
10006;BME280;5042;42.626;23.382;2024-01-30T05:53:13;148826.28;;;-1.07;100.00
10006;BME280;5042;42.626;23.382;2024-01-30T05:55:40;148809.56;;;-1.13;100.00
10006;BME280;5042;42.626;23.382;2024-01-30T05:58:07;148798.00;;;-1.18;100.00
10006;BME280;5042;42.626;23.382;2024-01-30T06:00:34;148812.13;;;-1.12;100.00
10006;BME280;5042;42.626;23.382;2024-01-30T06:03:01;148830.09;;;-1.05;100.00
10006;BME280;5042;42.626;23.382;2024-01-30T06:05:29;148830.09;;;-1.05;100.00
10006;BME280;5042;42.626;23.382;2024-01-30T06:07:56;148830.09;;;-1.05;100.00
10006;BME280;5042;42.626;23.382;2024-01-30T06:10:23;148885.38;;;-0.83;100.00
10006;BME280;5042;42.626;23.382;2024-01-30T06:12:50;148932.94;;;-0.64;100.00
10006;BME280;5042;42.626;23.382;2024-01-30T06:15:16;148963.78;;;-0.52;100.00
10006;BME280;5042;42.626;23.382;2024-01-30T06:17:43;149010.00;;;-0.33;100.00
10006;BME280;5042;42.626;23.382;2024-01-30T06:20:10;149061.47;;;-0.13;98.69
10006;BME280;5042;42.626;23.382;2024-01-30T06:22:38;149051.16;;;-0.17;98.71
10006;BME280;5042;42.626;23.382;2024-01-30T06:25:06;149030.59;;;-0.25;97.47
10006;BME280;5042;42.626;23.382;2024-01-30T06:27:33;149012.63;;;-0.32;99.23
10006;BME280;5042;42.626;23.382;2024-01-30T06:30:01;149021.59;;;-0.29;95.92
10006;BME280;5042;42.626;23.382;2024-01-30T06:32:28;149025.47;;;-0.27;96.32
10006;BME280;5042;42.626;23.382;2024-01-30T06:34:59;149012.63;;;-0.32;94.60
10006;BME280;5042;42.626;23.382;2024-01-30T06:37:26;149021.59;;;-0.29;94.97
10006;BME280;5042;42.626;23.382;2024-01-30T06:39:54;149031.88;;;-0.25;93.66
10006;BME280;5042;42.626;23.382;2024-01-30T06:42:21;149004.91;;;-0.35;94.08
10006;BME280;5042;42.626;23.382;2024-01-30T06:44:48;148972.75;;;-0.48;94.95
10006;BME280;5042;42.626;23.382;2024-01-30T06:47:15;149003.59;;;-0.36;92.19
10006;BME280;5042;42.626;23.382;2024-01-30T06:49:42;149013.88;;;-0.32;91.08
10006;BME280;5042;42.626;23.382;2024-01-30T06:52:10;148990.75;;;-0.41;91.97
10006;BME280;5042;42.626;23.382;2024-01-30T06:54:37;149002.31;;;-0.36;90.45
10006;BME280;5042;42.626;23.382;2024-01-30T06:57:06;149006.19;;;-0.35;90.42
10006;BME280;5042;42.626;23.382;2024-01-30T06:59:37;148998.50;;;-0.38;93.38
10006;BME280;5042;42.626;23.382;2024-01-30T07:02:08;148995.88;;;-0.39;94.23
10006;BME280;5042;42.626;23.382;2024-01-30T07:04:36;148976.63;;;-0.47;92.46
10006;BME280;5042;42.626;23.382;2024-01-30T07:07:04;148998.50;;;-0.38;88.10
10006;BME280;5042;42.626;23.382;2024-01-30T07:09:37;149013.88;;;-0.32;87.77
10006;BME280;5042;42.626;23.382;2024-01-30T07:12:06;149004.91;;;-0.35;88.12
10006;BME280;5042;42.626;23.382;2024-01-30T07:14:33;149039.59;;;-0.22;85.47
10006;BME280;5042;42.626;23.382;2024-01-30T07:17:00;149064.06;;;-0.12;84.42
10006;BME280;5042;42.626;23.382;2024-01-30T07:19:27;149065.31;;;-0.11;87.24
10006;BME280;5042;42.626;23.382;2024-01-30T07:21:54;149082.06;;;-0.05;85.30
10006;BME280;5042;42.626;23.382;2024-01-30T07:24:20;149102.59;;;0.04;86.54
10006;BME280;5042;42.626;23.382;2024-01-30T07:26:47;149172.06;;;0.31;86.46
10006;BME280;5042;42.626;23.382;2024-01-30T07:29:16;149163.06;;;0.28;82.96
10006;BME280;5042;42.626;23.382;2024-01-30T07:31:43;149169.47;;;0.30;83.68
10006;BME280;5042;42.626;23.382;2024-01-30T07:34:10;149114.19;;;0.08;79.09
10006;BME280;5042;42.626;23.382;2024-01-30T07:36:37;149118.06;;;0.10;80.88
10006;BME280;5042;42.626;23.382;2024-01-30T07:39:03;149088.47;;;-0.02;79.64
10006;BME280;5042;42.626;23.382;2024-01-30T07:41:30;149058.91;;;-0.14;79.29
10006;BME280;5042;42.626;23.382;2024-01-30T07:43:58;149061.47;;;-0.13;80.01
10006;BME280;5042;42.626;23.382;2024-01-30T07:46:26;149061.47;;;-0.13;80.13
10006;BME280;5042;42.626;23.382;2024-01-30T07:48:53;149092.31;;;-0.01;81.47
10006;BME280;5042;42.626;23.382;2024-01-30T07:51:21;149091.03;;;-0.01;86.73
10006;BME280;5042;42.626;23.382;2024-01-30T07:53:48;149043.47;;;-0.20;82.09
10006;BME280;5042;42.626;23.382;2024-01-30T07:56:15;149039.59;;;-0.22;83.91
10006;BME280;5042;42.626;23.382;2024-01-30T07:58:42;149022.91;;;-0.28;87.71
10006;BME280;5042;42.626;23.382;2024-01-30T08:01:10;149058.91;;;-0.14;84.75
10006;BME280;5042;42.626;23.382;2024-01-30T08:03:38;149002.31;;;-0.36;84.91
10006;BME280;5042;42.626;23.382;2024-01-30T08:06:07;149003.59;;;-0.36;87.07
10006;BME280;5042;42.626;23.382;2024-01-30T08:08:34;149028.00;;;-0.26;88.57
10006;BME280;5042;42.626;23.382;2024-01-30T08:11:00;149022.91;;;-0.28;88.56
10006;BME280;5042;42.626;23.382;2024-01-30T08:13:27;149037.03;;;-0.23;87.55
10006;BME280;5042;42.626;23.382;2024-01-30T08:15:54;149058.91;;;-0.14;87.54
10006;BME280;5042;42.626;23.382;2024-01-30T08:18:21;149064.06;;;-0.12;86.49
10006;BME280;5042;42.626;23.382;2024-01-30T08:20:49;149136.06;;;0.17;84.99
10006;BME280;5042;42.626;23.382;2024-01-30T08:23:16;149125.75;;;0.13;84.00
10006;BME280;5042;42.626;23.382;2024-01-30T08:25:43;149177.22;;;0.33;82.67
10006;BME280;5042;42.626;23.382;2024-01-30T08:28:10;149231.25;;;0.55;79.32
10006;BME280;5042;42.626;23.382;2024-01-30T08:30:37;149379.19;;;1.14;77.25
10006;BME280;5042;42.626;23.382;2024-01-30T08:33:05;149480.88;;;1.54;76.66
10006;BME280;5042;42.626;23.382;2024-01-30T08:35:32;149640.59;;;2.18;74.07
10006;BME280;5042;42.626;23.382;2024-01-30T08:38:00;149759.16;;;2.65;69.39
10006;BME280;5042;42.626;23.382;2024-01-30T08:40:27;149942.25;;;3.37;67.15
10006;BME280;5042;42.626;23.382;2024-01-30T08:42:55;150094.41;;;3.98;64.69
10006;BME280;5042;42.626;23.382;2024-01-30T08:45:22;150183.47;;;4.33;61.48
10006;BME280;5042;42.626;23.382;2024-01-30T08:47:49;150329.31;;;4.91;59.37
10006;BME280;5042;42.626;23.382;2024-01-30T08:50:16;150508.84;;;5.62;56.22
10006;BME280;5042;42.626;23.382;2024-01-30T08:52:43;150586.38;;;5.93;52.12
10006;BME280;5042;42.626;23.382;2024-01-30T08:55:11;150616.13;;;6.05;52.81
10006;BME280;5042;42.626;23.382;2024-01-30T08:57:38;150644.59;;;6.16;53.09
10006;BME280;5042;42.626;23.382;2024-01-30T09:00:06;150601.94;;;5.99;49.01
10006;BME280;5042;42.626;23.382;2024-01-30T09:02:34;150324.19;;;4.89;50.97
10006;BME280;5042;42.626;23.382;2024-01-30T09:05:01;150115.09;;;4.06;52.99
10006;BME280;5042;42.626;23.382;2024-01-30T09:07:28;150011.84;;;3.65;54.59
10006;BME280;5042;42.626;23.382;2024-01-30T09:09:55;149951.25;;;3.41;55.62
10006;BME280;5042;42.626;23.382;2024-01-30T09:12:24;149962.84;;;3.46;55.54
10006;BME280;5042;42.626;23.382;2024-01-30T09:14:51;150098.31;;;3.99;54.30
10006;BME280;5042;42.626;23.382;2024-01-30T09:17:18;150197.63;;;4.39;54.53
10006;BME280;5042;42.626;23.382;2024-01-30T09:19:45;150120.25;;;4.08;53.85
10006;BME280;5042;42.626;23.382;2024-01-30T09:22:12;150135.72;;;4.14;55.20
10006;BME280;5042;42.626;23.382;2024-01-30T09:24:40;150078.97;;;3.92;54.38
10006;BME280;5042;42.626;23.382;2024-01-30T09:27:07;150086.69;;;3.95;55.21
10006;BME280;5042;42.626;23.382;2024-01-30T09:29:35;150067.34;;;3.87;54.35
10006;BME280;5042;42.626;23.382;2024-01-30T09:32:02;150033.78;;;3.74;54.19
10006;BME280;5042;42.626;23.382;2024-01-30T09:34:30;149996.41;;;3.59;54.96
10006;BME280;5042;42.626;23.382;2024-01-30T09:36:58;149937.06;;;3.35;55.31
10006;BME280;5042;42.626;23.382;2024-01-30T09:39:25;149858.44;;;3.04;56.31
10006;BME280;5042;42.626;23.382;2024-01-30T09:41:59;149839.06;;;2.96;57.70
10006;BME280;5042;42.626;23.382;2024-01-30T09:44:28;149812.00;;;2.86;58.39
10006;BME280;5042;42.626;23.382;2024-01-30T09:46:57;149810.72;;;2.85;58.31
10006;BME280;5042;42.626;23.382;2024-01-30T09:49:30;149784.91;;;2.75;59.50
10006;BME280;5042;42.626;23.382;2024-01-30T09:51:58;149683.13;;;2.34;58.21
10006;BME280;5042;42.626;23.382;2024-01-30T09:54:25;149693.44;;;2.39;59.43
10006;BME280;5042;42.626;23.382;2024-01-30T09:56:52;149694.72;;;2.39;60.94
10006;BME280;5042;42.626;23.382;2024-01-30T09:59:19;149672.84;;;2.30;59.98
10006;BME280;5042;42.626;23.382;2024-01-30T10:01:46;149617.41;;;2.08;61.17
10006;BME280;5042;42.626;23.382;2024-01-30T10:04:14;149532.41;;;1.75;61.08
10006;BME280;5042;42.626;23.382;2024-01-30T10:06:42;149532.41;;;1.75;62.02
10006;BME280;5042;42.626;23.382;2024-01-30T10:09:09;149452.59;;;1.43;63.40
10006;BME280;5042;42.626;23.382;2024-01-30T10:11:36;149573.63;;;1.91;63.40
10006;BME280;5042;42.626;23.382;2024-01-30T10:14:03;149559.50;;;1.85;61.60
10006;BME280;5042;42.626;23.382;2024-01-30T10:16:30;149564.59;;;1.87;63.53
10006;BME280;5042;42.626;23.382;2024-01-30T10:18:57;149622.56;;;2.10;62.83
10006;BME280;5042;42.626;23.382;2024-01-30T10:21:25;149663.81;;;2.27;64.81
10006;BME280;5042;42.626;23.382;2024-01-30T10:23:52;149763.03;;;2.66;65.68
10006;BME280;5042;42.626;23.382;2024-01-30T10:26:20;149864.88;;;3.07;64.34
10006;BME280;5042;42.626;23.382;2024-01-30T10:28:48;149919.03;;;3.28;60.61
10006;BME280;5042;42.626;23.382;2024-01-30T10:31:17;149900.97;;;3.21;61.21
10006;BME280;5042;42.626;23.382;2024-01-30T10:33:44;149836.50;;;2.95;61.20
10006;BME280;5042;42.626;23.382;2024-01-30T10:36:13;149770.75;;;2.69;61.55
10006;BME280;5042;42.626;23.382;2024-01-30T10:38:42;149800.41;;;2.81;64.00
10006;BME280;5042;42.626;23.382;2024-01-30T10:41:12;149719.19;;;2.49;64.19
10006;BME280;5042;42.626;23.382;2024-01-30T10:43:41;149609.69;;;2.05;64.92
10006;BME280;5042;42.626;23.382;2024-01-30T10:46:11;149259.53;;;0.66;66.51
10006;BME280;5042;42.626;23.382;2024-01-30T10:48:43;149659.91;;;2.25;65.86
10006;BME280;5042;42.626;23.382;2024-01-30T10:51:11;149528.53;;;1.73;66.24
10006;BME280;5042;42.626;23.382;2024-01-30T10:53:38;149581.34;;;1.94;66.93
10006;BME280;5042;42.626;23.382;2024-01-30T10:56:08;149514.38;;;1.67;66.70
10006;BME280;5042;42.626;23.382;2024-01-30T10:58:37;149426.81;;;1.33;68.88
10006;BME280;5042;42.626;23.382;2024-01-30T11:01:05;149406.25;;;1.24;70.76
10006;BME280;5042;42.626;23.382;2024-01-30T11:03:33;149410.13;;;1.26;71.73
10006;BME280;5042;42.626;23.382;2024-01-30T11:06:02;149475.78;;;1.52;71.53
10006;BME280;5042;42.626;23.382;2024-01-30T11:08:32;149527.25;;;1.73;73.18
10006;BME280;5042;42.626;23.382;2024-01-30T11:10:59;149573.63;;;1.91;71.43
10006;BME280;5042;42.626;23.382;2024-01-30T11:13:30;149501.53;;;1.62;69.20
10006;BME280;5042;42.626;23.382;2024-01-30T11:16:00;149500.25;;;1.62;72.99
10006;BME280;5042;42.626;23.382;2024-01-30T11:18:30;149465.47;;;1.48;69.54
10006;BME280;5042;42.626;23.382;2024-01-30T11:20:57;149410.13;;;1.26;71.44
10006;BME280;5042;42.626;23.382;2024-01-30T11:23:26;149417.84;;;1.29;73.21
10006;BME280;5042;42.626;23.382;2024-01-30T11:25:54;149322.59;;;0.91;76.34
10006;BME280;5042;42.626;23.382;2024-01-30T11:28:21;149513.13;;;1.67;73.01
10006;BME280;5042;42.626;23.382;2024-01-30T11:30:50;149495.09;;;1.60;71.37
10006;BME280;5042;42.626;23.382;2024-01-30T11:33:27;149177.22;;;0.33;70.34
10006;BME280;5042;42.626;23.382;2024-01-30T11:35:57;149564.59;;;1.87;73.13
10006;BME280;5042;42.626;23.382;2024-01-30T11:38:26;149641.88;;;2.18;74.36
10006;BME280;5042;42.626;23.382;2024-01-30T11:40:54;149617.41;;;2.08;69.05
10006;BME280;5042;42.626;23.382;2024-01-30T11:43:22;149609.69;;;2.05;71.75
10006;BME280;5042;42.626;23.382;2024-01-30T11:45:51;149547.91;;;1.81;71.33
10006;BME280;5042;42.626;23.382;2024-01-30T11:48:18;149560.75;;;1.86;73.08
10006;BME280;5042;42.626;23.382;2024-01-30T11:50:45;149609.69;;;2.05;71.85
10006;BME280;5042;42.626;23.382;2024-01-30T11:53:12;149643.22;;;2.19;72.24
10006;BME280;5042;42.626;23.382;2024-01-30T11:55:39;149666.41;;;2.28;72.59
10006;BME280;5042;42.626;23.382;2024-01-30T11:58:06;149632.88;;;2.15;71.48
10006;BME280;5042;42.626;23.382;2024-01-30T12:00:33;149648.38;;;2.21;73.41
10006;BME280;5042;42.626;23.382;2024-01-30T12:03:01;149685.72;;;2.36;72.44
10006;BME280;5042;42.626;23.382;2024-01-30T12:05:28;149670.25;;;2.29;70.41
10006;BME280;5042;42.626;23.382;2024-01-30T12:07:55;149667.69;;;2.28;74.07
10006;BME280;5042;42.626;23.382;2024-01-30T12:10:24;149681.84;;;2.34;70.63
10006;BME280;5042;42.626;23.382;2024-01-30T12:12:52;149702.47;;;2.42;71.40
10006;BME280;5042;42.626;23.382;2024-01-30T12:15:22;149663.81;;;2.27;69.16
10006;BME280;5042;42.626;23.382;2024-01-30T12:17:49;149665.06;;;2.27;67.69
10006;BME280;5042;42.626;23.382;2024-01-30T12:20:19;149666.41;;;2.28;69.84
10006;BME280;5042;42.626;23.382;2024-01-30T12:22:47;149707.59;;;2.44;70.52
10006;BME280;5042;42.626;23.382;2024-01-30T12:25:16;149716.63;;;2.48;70.42
10006;BME280;5042;42.626;23.382;2024-01-30T12:27:44;149765.59;;;2.67;70.34
10006;BME280;5042;42.626;23.382;2024-01-30T12:30:12;149791.34;;;2.78;66.25
10006;BME280;5042;42.626;23.382;2024-01-30T12:32:40;149764.31;;;2.67;66.84
10006;BME280;5042;42.626;23.382;2024-01-30T12:35:09;149712.75;;;2.46;66.12
10006;BME280;5042;42.626;23.382;2024-01-30T12:37:38;149688.28;;;2.37;66.67
10006;BME280;5042;42.626;23.382;2024-01-30T12:40:07;149608.41;;;2.05;69.59
10006;BME280;5042;42.626;23.382;2024-01-30T12:42:35;149641.88;;;2.18;70.79
10006;BME280;5042;42.626;23.382;2024-01-30T12:45:02;149663.81;;;2.27;71.15
10006;BME280;5042;42.626;23.382;2024-01-30T12:47:30;149581.34;;;1.94;68.16
10006;BME280;5042;42.626;23.382;2024-01-30T12:49:57;149501.53;;;1.62;68.69
10006;BME280;5042;42.626;23.382;2024-01-30T12:52:24;149457.75;;;1.45;71.16
10006;BME280;5042;42.626;23.382;2024-01-30T12:54:52;149451.28;;;1.42;71.43